sensor_id;sensor_type;location;lat;lon;timestamp;pressure;altitude;pressure_sealevel;temperature;humidity
60646;BME280;46462;32.608;-117.032;2022-08-19T00:02:01;99076.79;;;29.20;47.62
60646;BME280;46462;32.608;-117.032;2022-08-19T00:04:34;99072.81;;;29.24;47.53
60646;BME280;46462;32.608;-117.032;2022-08-19T00:07:02;99071.89;;;29.30;47.51
60646;BME280;46462;32.608;-117.032;2022-08-19T00:09:32;99073.56;;;29.35;47.31
60646;BME280;46462;32.608;-117.032;2022-08-19T00:12:02;99070.50;;;29.42;47.14
60646;BME280;46462;32.608;-117.032;2022-08-19T00:14:32;99069.35;;;29.44;47.22
60646;BME280;46462;32.608;-117.032;2022-08-19T00:17:04;99070.51;;;29.48;47.27
60646;BME280;46462;32.608;-117.032;2022-08-19T00:19:32;99067.46;;;29.51;47.12
60646;BME280;46462;32.608;-117.032;2022-08-19T00:22:02;99069.08;;;29.56;47.02
60646;BME280;46462;32.608;-117.032;2022-08-19T00:24:33;99067.13;;;29.60;47.00
60646;BME280;46462;32.608;-117.032;2022-08-19T00:27:02;99067.37;;;29.64;46.80
60646;BME280;46462;32.608;-117.032;2022-08-19T00:29:32;99068.29;;;29.67;46.80
60646;BME280;46462;32.608;-117.032;2022-08-19T00:32:03;99064.06;;;29.70;46.78
60646;BME280;46462;32.608;-117.032;2022-08-19T00:34:33;99066.51;;;29.73;46.78
60646;BME280;46462;32.608;-117.032;2022-08-19T00:37:03;99067.63;;;29.77;46.73
60646;BME280;46462;32.608;-117.032;2022-08-19T00:39:33;99082.86;;;28.72;47.87
60646;BME280;46462;32.608;-117.032;2022-08-19T00:42:03;99076.42;;;27.22;47.99
60646;BME280;46462;32.608;-117.032;2022-08-19T00:44:33;99078.08;;;25.70;49.27
60646;BME280;46462;32.608;-117.032;2022-08-19T00:47:03;99074.92;;;24.90;48.75
60646;BME280;46462;32.608;-117.032;2022-08-19T00:49:36;99074.82;;;24.10;48.90
60646;BME280;46462;32.608;-117.032;2022-08-19T00:52:06;99073.05;;;23.55;48.87
60646;BME280;46462;32.608;-117.032;2022-08-19T00:54:33;99077.98;;;22.62;50.30
60646;BME280;46462;32.608;-117.032;2022-08-19T00:57:06;99083.26;;;22.55;64.38
60646;BME280;46462;32.608;-117.032;2022-08-19T00:59:36;99088.39;;;22.70;69.51
60646;BME280;46462;32.608;-117.032;2022-08-19T01:02:05;99090.59;;;23.04;71.48
60646;BME280;46462;32.608;-117.032;2022-08-19T01:04:34;99089.97;;;23.35;66.46
60646;BME280;46462;32.608;-117.032;2022-08-19T01:07:04;99094.58;;;23.09;59.43
60646;BME280;46462;32.608;-117.032;2022-08-19T01:09:34;99100.91;;;23.07;68.05
60646;BME280;46462;32.608;-117.032;2022-08-19T01:12:05;99102.01;;;23.47;70.10
60646;BME280;46462;32.608;-117.032;2022-08-19T01:14:35;99101.79;;;23.67;70.37
60646;BME280;46462;32.608;-117.032;2022-08-19T01:17:05;99101.74;;;23.88;63.76
60646;BME280;46462;32.608;-117.032;2022-08-19T01:19:37;99096.19;;;23.58;57.92
60646;BME280;46462;32.608;-117.032;2022-08-19T01:22:10;99099.13;;;23.60;67.64
60646;BME280;46462;32.608;-117.032;2022-08-19T01:24:35;99098.72;;;23.84;68.52
60646;BME280;46462;32.608;-117.032;2022-08-19T01:27:06;99097.45;;;23.94;68.67
60646;BME280;46462;32.608;-117.032;2022-08-19T01:29:39;99092.81;;;24.07;68.90
60646;BME280;46462;32.608;-117.032;2022-08-19T01:32:06;99086.33;;;24.14;64.01
60646;BME280;46462;32.608;-117.032;2022-08-19T01:34:36;99083.80;;;23.92;60.81
60646;BME280;46462;32.608;-117.032;2022-08-19T01:37:07;99083.39;;;23.73;65.08
60646;BME280;46462;32.608;-117.032;2022-08-19T01:39:37;99082.86;;;24.29;65.90
60646;BME280;46462;32.608;-117.032;2022-08-19T01:42:07;99082.42;;;24.27;67.21
60646;BME280;46462;32.608;-117.032;2022-08-19T01:44:37;99081.32;;;24.52;62.82
60646;BME280;46462;32.608;-117.032;2022-08-19T01:47:07;99078.53;;;24.11;60.32
60646;BME280;46462;32.608;-117.032;2022-08-19T01:49:37;99077.40;;;23.99;62.96
60646;BME280;46462;32.608;-117.032;2022-08-19T01:52:07;99079.31;;;24.04;66.29
60646;BME280;46462;32.608;-117.032;2022-08-19T01:54:37;99081.31;;;24.30;66.99
60646;BME280;46462;32.608;-117.032;2022-08-19T01:57:10;99082.93;;;24.30;67.82
60646;BME280;46462;32.608;-117.032;2022-08-19T01:59:37;99086.19;;;24.36;68.26
60646;BME280;46462;32.608;-117.032;2022-08-19T02:02:08;99090.61;;;24.53;68.10
60646;BME280;46462;32.608;-117.032;2022-08-19T02:04:38;99092.18;;;24.75;63.61
60646;BME280;46462;32.608;-117.032;2022-08-19T02:07:08;99092.28;;;24.45;60.20
60646;BME280;46462;32.608;-117.032;2022-08-19T02:09:38;99093.04;;;23.87;61.87
60646;BME280;46462;32.608;-117.032;2022-08-19T02:12:08;99096.54;;;24.10;65.84
60646;BME280;46462;32.608;-117.032;2022-08-19T02:14:38;99095.84;;;24.34;66.53
60646;BME280;46462;32.608;-117.032;2022-08-19T02:17:09;99097.48;;;24.42;67.20
60646;BME280;46462;32.608;-117.032;2022-08-19T02:19:38;99095.57;;;24.41;67.84
60646;BME280;46462;32.608;-117.032;2022-08-19T02:22:08;99096.93;;;24.64;67.42
60646;BME280;46462;32.608;-117.032;2022-08-19T02:24:39;99096.62;;;24.83;66.96
60646;BME280;46462;32.608;-117.032;2022-08-19T02:27:09;99103.43;;;24.87;66.93
60646;BME280;46462;32.608;-117.032;2022-08-19T02:29:39;99104.46;;;24.84;67.21
60646;BME280;46462;32.608;-117.032;2022-08-19T02:32:09;99110.42;;;24.86;67.20
60646;BME280;46462;32.608;-117.032;2022-08-19T02:34:39;99115.06;;;24.82;67.29
60646;BME280;46462;32.608;-117.032;2022-08-19T02:37:09;99119.26;;;24.86;67.17
60646;BME280;46462;32.608;-117.032;2022-08-19T02:39:39;99104.72;;;26.24;62.35
60646;BME280;46462;32.608;-117.032;2022-08-19T02:42:09;99111.82;;;27.04;59.50
60646;BME280;46462;32.608;-117.032;2022-08-19T02:44:40;99112.95;;;27.57;57.57
60646;BME280;46462;32.608;-117.032;2022-08-19T02:47:10;99117.29;;;27.94;56.22
60646;BME280;46462;32.608;-117.032;2022-08-19T02:49:40;99123.99;;;28.12;55.59
60646;BME280;46462;32.608;-117.032;2022-08-19T02:52:10;99126.79;;;28.31;54.92
60646;BME280;46462;32.608;-117.032;2022-08-19T02:54:40;99131.16;;;28.44;54.30
60646;BME280;46462;32.608;-117.032;2022-08-19T02:57:10;99136.39;;;28.53;53.93
60646;BME280;46462;32.608;-117.032;2022-08-19T02:59:40;99137.46;;;28.63;53.53
60646;BME280;46462;32.608;-117.032;2022-08-19T03:02:10;99138.71;;;28.75;53.05
60646;BME280;46462;32.608;-117.032;2022-08-19T03:04:41;99137.44;;;28.81;52.72
60646;BME280;46462;32.608;-117.032;2022-08-19T03:07:14;99138.56;;;28.83;52.71
60646;BME280;46462;32.608;-117.032;2022-08-19T03:09:41;99141.18;;;28.84;52.50
60646;BME280;46462;32.608;-117.032;2022-08-19T03:12:11;99145.37;;;28.89;52.34
60646;BME280;46462;32.608;-117.032;2022-08-19T03:14:41;99147.32;;;28.90;52.28
60646;BME280;46462;32.608;-117.032;2022-08-19T03:17:11;99143.99;;;28.93;52.20
60646;BME280;46462;32.608;-117.032;2022-08-19T03:19:41;99141.90;;;28.94;52.11
60646;BME280;46462;32.608;-117.032;2022-08-19T03:22:12;99144.96;;;28.96;52.07
60646;BME280;46462;32.608;-117.032;2022-08-19T03:24:41;99151.00;;;28.98;51.98
60646;BME280;46462;32.608;-117.032;2022-08-19T03:27:12;99156.99;;;29.01;51.83
60646;BME280;46462;32.608;-117.032;2022-08-19T03:29:42;99160.01;;;29.01;51.81
60646;BME280;46462;32.608;-117.032;2022-08-19T03:32:12;99163.11;;;29.03;51.71
60646;BME280;46462;32.608;-117.032;2022-08-19T03:34:42;99167.66;;;29.05;51.62
60646;BME280;46462;32.608;-117.032;2022-08-19T03:37:12;99173.17;;;29.08;51.54
60646;BME280;46462;32.608;-117.032;2022-08-19T03:39:42;99177.64;;;29.08;51.48
60646;BME280;46462;32.608;-117.032;2022-08-19T03:42:12;99179.10;;;29.12;51.33
60646;BME280;46462;32.608;-117.032;2022-08-19T03:44:42;99184.45;;;29.12;51.35
60646;BME280;46462;32.608;-117.032;2022-08-19T03:47:13;99188.59;;;29.14;51.26
60646;BME280;46462;32.608;-117.032;2022-08-19T03:49:43;99192.15;;;29.14;51.21
60646;BME280;46462;32.608;-117.032;2022-08-19T03:52:13;99193.56;;;29.15;51.21
60646;BME280;46462;32.608;-117.032;2022-08-19T03:54:43;99195.90;;;29.17;51.00
60646;BME280;46462;32.608;-117.032;2022-08-19T03:57:13;99200.29;;;29.18;50.94
60646;BME280;46462;32.608;-117.032;2022-08-19T03:59:43;99201.35;;;29.19;50.84
60646;BME280;46462;32.608;-117.032;2022-08-19T04:02:14;99203.04;;;29.21;50.78
60646;BME280;46462;32.608;-117.032;2022-08-19T04:04:44;99202.74;;;29.21;50.79
60646;BME280;46462;32.608;-117.032;2022-08-19T04:07:14;99201.83;;;29.23;50.72
60646;BME280;46462;32.608;-117.032;2022-08-19T04:09:44;99201.79;;;29.24;50.64
60646;BME280;46462;32.608;-117.032;2022-08-19T04:12:14;99200.40;;;29.25;50.65
60646;BME280;46462;32.608;-117.032;2022-08-19T04:14:44;99200.84;;;29.24;50.64
60646;BME280;46462;32.608;-117.032;2022-08-19T04:17:14;99202.76;;;29.26;50.53
60646;BME280;46462;32.608;-117.032;2022-08-19T04:19:44;99206.03;;;29.27;50.48
60646;BME280;46462;32.608;-117.032;2022-08-19T04:22:14;99205.52;;;29.29;50.44
60646;BME280;46462;32.608;-117.032;2022-08-19T04:24:44;99205.37;;;29.29;50.35
60646;BME280;46462;32.608;-117.032;2022-08-19T04:27:14;99203.84;;;29.31;50.28
60646;BME280;46462;32.608;-117.032;2022-08-19T04:29:45;99203.33;;;29.30;50.28
60646;BME280;46462;32.608;-117.032;2022-08-19T04:32:15;99202.00;;;29.31;50.24
60646;BME280;46462;32.608;-117.032;2022-08-19T04:34:45;99205.17;;;29.31;50.22
60646;BME280;46462;32.608;-117.032;2022-08-19T04:37:15;99211.48;;;29.32;50.13
60646;BME280;46462;32.608;-117.032;2022-08-19T04:39:45;99214.99;;;29.33;50.08
60646;BME280;46462;32.608;-117.032;2022-08-19T04:42:16;99217.35;;;29.35;50.04
60646;BME280;46462;32.608;-117.032;2022-08-19T04:44:45;99218.16;;;29.34;50.01
60646;BME280;46462;32.608;-117.032;2022-08-19T04:47:15;99215.39;;;29.35;49.90
60646;BME280;46462;32.608;-117.032;2022-08-19T04:49:46;99210.77;;;29.36;49.91
60646;BME280;46462;32.608;-117.032;2022-08-19T04:52:16;99216.63;;;29.38;49.79
60646;BME280;46462;32.608;-117.032;2022-08-19T04:54:46;99215.44;;;29.38;49.75
60646;BME280;46462;32.608;-117.032;2022-08-19T04:57:16;99215.21;;;29.41;49.68
60646;BME280;46462;32.608;-117.032;2022-08-19T04:59:46;99213.95;;;29.39;49.69
60646;BME280;46462;32.608;-117.032;2022-08-19T05:02:16;99209.25;;;29.40;49.66
60646;BME280;46462;32.608;-117.032;2022-08-19T05:04:46;99205.27;;;29.40;49.67
60646;BME280;46462;32.608;-117.032;2022-08-19T05:07:16;99201.75;;;29.38;49.68
60646;BME280;46462;32.608;-117.032;2022-08-19T05:09:46;99201.61;;;29.37;49.69
60646;BME280;46462;32.608;-117.032;2022-08-19T05:12:17;99201.74;;;29.39;49.61
60646;BME280;46462;32.608;-117.032;2022-08-19T05:14:47;99203.73;;;29.40;49.49
60646;BME280;46462;32.608;-117.032;2022-08-19T05:17:17;99203.77;;;29.43;49.47
60646;BME280;46462;32.608;-117.032;2022-08-19T05:19:47;99202.03;;;29.39;49.51
60646;BME280;46462;32.608;-117.032;2022-08-19T05:22:17;99199.71;;;29.40;49.49
60646;BME280;46462;32.608;-117.032;2022-08-19T05:24:47;99199.15;;;29.40;49.45
60646;BME280;46462;32.608;-117.032;2022-08-19T05:27:17;99198.45;;;29.42;49.36
60646;BME280;46462;32.608;-117.032;2022-08-19T05:29:47;99197.70;;;29.41;49.37
60646;BME280;46462;32.608;-117.032;2022-08-19T05:32:17;99192.74;;;29.40;49.37
60646;BME280;46462;32.608;-117.032;2022-08-19T05:34:48;99191.55;;;29.39;49.39
60646;BME280;46462;32.608;-117.032;2022-08-19T05:37:18;99191.17;;;29.42;49.28
60646;BME280;46462;32.608;-117.032;2022-08-19T05:39:48;99187.65;;;29.41;49.28
60646;BME280;46462;32.608;-117.032;2022-08-19T05:42:18;99186.44;;;29.42;49.23
60646;BME280;46462;32.608;-117.032;2022-08-19T05:44:48;99184.56;;;29.43;49.20
60646;BME280;46462;32.608;-117.032;2022-08-19T05:47:19;99190.18;;;29.45;49.14
60646;BME280;46462;32.608;-117.032;2022-08-19T05:49:49;99187.82;;;29.40;49.19
60646;BME280;46462;32.608;-117.032;2022-08-19T05:52:19;99183.38;;;29.42;49.12
60646;BME280;46462;32.608;-117.032;2022-08-19T05:54:48;99178.55;;;29.45;48.93
60646;BME280;46462;32.608;-117.032;2022-08-19T05:57:19;99171.19;;;29.44;48.96
60646;BME280;46462;32.608;-117.032;2022-08-19T05:59:49;99171.01;;;29.42;48.97
60646;BME280;46462;32.608;-117.032;2022-08-19T06:02:19;99170.32;;;29.42;48.97
60646;BME280;46462;32.608;-117.032;2022-08-19T06:04:49;99169.02;;;29.43;48.85
60646;BME280;46462;32.608;-117.032;2022-08-19T06:07:19;99164.98;;;29.42;48.83
60646;BME280;46462;32.608;-117.032;2022-08-19T06:09:49;99161.98;;;29.40;48.86
60646;BME280;46462;32.608;-117.032;2022-08-19T06:12:19;99155.75;;;29.43;48.67
60646;BME280;46462;32.608;-117.032;2022-08-19T06:14:49;99150.10;;;29.41;48.86
60646;BME280;46462;32.608;-117.032;2022-08-19T06:17:19;99149.03;;;29.42;48.75
60646;BME280;46462;32.608;-117.032;2022-08-19T06:19:49;99152.29;;;29.39;48.73
60646;BME280;46462;32.608;-117.032;2022-08-19T06:22:19;99153.43;;;29.40;48.73
60646;BME280;46462;32.608;-117.032;2022-08-19T06:24:50;99150.94;;;29.40;48.69
60646;BME280;46462;32.608;-117.032;2022-08-19T06:27:20;99147.21;;;29.44;48.46
60646;BME280;46462;32.608;-117.032;2022-08-19T06:29:50;99149.93;;;29.40;48.61
60646;BME280;46462;32.608;-117.032;2022-08-19T06:32:20;99150.83;;;29.40;48.54
60646;BME280;46462;32.608;-117.032;2022-08-19T06:34:50;99149.54;;;29.37;48.46
60646;BME280;46462;32.608;-117.032;2022-08-19T06:37:20;99147.56;;;29.36;48.59
60646;BME280;46462;32.608;-117.032;2022-08-19T06:39:50;99149.72;;;29.39;48.49
60646;BME280;46462;32.608;-117.032;2022-08-19T06:42:20;99147.47;;;29.40;48.36
60646;BME280;46462;32.608;-117.032;2022-08-19T06:44:50;99146.23;;;29.40;48.32
60646;BME280;46462;32.608;-117.032;2022-08-19T06:47:21;99147.36;;;29.35;48.40
60646;BME280;46462;32.608;-117.032;2022-08-19T06:49:53;99145.49;;;29.35;48.46
60646;BME280;46462;32.608;-117.032;2022-08-19T06:52:21;99145.66;;;29.35;48.42
60646;BME280;46462;32.608;-117.032;2022-08-19T06:54:51;99152.69;;;29.34;48.40
60646;BME280;46462;32.608;-117.032;2022-08-19T06:57:21;99156.96;;;29.38;48.20
60646;BME280;46462;32.608;-117.032;2022-08-19T06:59:51;99156.05;;;29.34;48.11
60646;BME280;46462;32.608;-117.032;2022-08-19T07:02:21;99154.05;;;29.33;48.29
60646;BME280;46462;32.608;-117.032;2022-08-19T07:04:51;99158.71;;;29.36;48.18
60646;BME280;46462;32.608;-117.032;2022-08-19T07:07:22;99160.77;;;29.37;48.09
60646;BME280;46462;32.608;-117.032;2022-08-19T07:09:52;99156.97;;;29.34;47.98
60646;BME280;46462;32.608;-117.032;2022-08-19T07:12:22;99152.90;;;29.29;48.07
60646;BME280;46462;32.608;-117.032;2022-08-19T07:14:52;99152.76;;;29.29;48.13
60646;BME280;46462;32.608;-117.032;2022-08-19T07:17:22;99149.29;;;29.26;48.07
60646;BME280;46462;32.608;-117.032;2022-08-19T07:19:52;99144.68;;;29.26;48.02
60646;BME280;46462;32.608;-117.032;2022-08-19T07:22:22;99140.60;;;29.27;48.05
60646;BME280;46462;32.608;-117.032;2022-08-19T07:24:52;99136.90;;;29.28;47.94
60646;BME280;46462;32.608;-117.032;2022-08-19T07:27:22;99129.74;;;29.27;47.94
60646;BME280;46462;32.608;-117.032;2022-08-19T07:29:53;99131.49;;;29.27;47.84
60646;BME280;46462;32.608;-117.032;2022-08-19T07:32:23;99130.11;;;29.22;48.07
60646;BME280;46462;32.608;-117.032;2022-08-19T07:34:53;99124.72;;;29.25;47.79
60646;BME280;46462;32.608;-117.032;2022-08-19T07:37:23;99123.77;;;29.27;47.76
60646;BME280;46462;32.608;-117.032;2022-08-19T07:39:53;99120.23;;;29.21;47.89
60646;BME280;46462;32.608;-117.032;2022-08-19T07:42:23;99114.02;;;29.16;47.88
60646;BME280;46462;32.608;-117.032;2022-08-19T07:44:53;99113.40;;;29.17;47.87
60646;BME280;46462;32.608;-117.032;2022-08-19T07:47:23;99112.85;;;29.17;47.92
60646;BME280;46462;32.608;-117.032;2022-08-19T07:49:53;99107.16;;;29.17;47.81
60646;BME280;46462;32.608;-117.032;2022-08-19T07:52:23;99102.40;;;29.14;47.95
60646;BME280;46462;32.608;-117.032;2022-08-19T07:54:53;99097.71;;;29.06;48.00
60646;BME280;46462;32.608;-117.032;2022-08-19T07:57:24;99095.29;;;29.12;47.92
60646;BME280;46462;32.608;-117.032;2022-08-19T07:59:54;99093.55;;;29.08;47.86
60646;BME280;46462;32.608;-117.032;2022-08-19T08:02:24;99092.85;;;29.15;47.64
60646;BME280;46462;32.608;-117.032;2022-08-19T08:04:54;99090.28;;;29.14;47.58
60646;BME280;46462;32.608;-117.032;2022-08-19T08:07:24;99086.34;;;29.13;47.64
60646;BME280;46462;32.608;-117.032;2022-08-19T08:09:54;99086.26;;;29.09;47.66
60646;BME280;46462;32.608;-117.032;2022-08-19T08:12:27;99083.35;;;29.09;47.74
60646;BME280;46462;32.608;-117.032;2022-08-19T08:14:57;99078.88;;;29.14;47.48
60646;BME280;46462;32.608;-117.032;2022-08-19T08:17:27;99081.80;;;29.12;47.52
60646;BME280;46462;32.608;-117.032;2022-08-19T08:19:55;99085.08;;;29.07;47.65
60646;BME280;46462;32.608;-117.032;2022-08-19T08:22:25;99086.88;;;29.06;47.63
60646;BME280;46462;32.608;-117.032;2022-08-19T08:24:55;99084.07;;;29.05;47.61
60646;BME280;46462;32.608;-117.032;2022-08-19T08:27:25;99087.01;;;29.12;47.39
60646;BME280;46462;32.608;-117.032;2022-08-19T08:29:55;99088.86;;;29.08;47.49
60646;BME280;46462;32.608;-117.032;2022-08-19T08:32:25;99091.43;;;29.04;47.38
60646;BME280;46462;32.608;-117.032;2022-08-19T08:34:55;99093.15;;;29.05;47.49
60646;BME280;46462;32.608;-117.032;2022-08-19T08:37:25;99091.91;;;29.00;47.59
60646;BME280;46462;32.608;-117.032;2022-08-19T08:39:55;99086.47;;;29.01;47.43
60646;BME280;46462;32.608;-117.032;2022-08-19T08:42:30;99080.37;;;29.03;47.32
60646;BME280;46462;32.608;-117.032;2022-08-19T08:44:59;99074.01;;;29.00;47.34
60646;BME280;46462;32.608;-117.032;2022-08-19T08:47:28;99068.00;;;28.99;47.42
60646;BME280;46462;32.608;-117.032;2022-08-19T08:49:59;99062.63;;;29.05;47.20
60646;BME280;46462;32.608;-117.032;2022-08-19T08:52:29;99059.07;;;29.05;47.15
60646;BME280;46462;32.608;-117.032;2022-08-19T08:54:59;99056.76;;;29.02;47.24
60646;BME280;46462;32.608;-117.032;2022-08-19T08:57:30;99051.06;;;29.03;47.18
60646;BME280;46462;32.608;-117.032;2022-08-19T08:59:57;99045.96;;;29.02;47.09
60646;BME280;46462;32.608;-117.032;2022-08-19T09:02:26;99047.78;;;28.98;47.19
60646;BME280;46462;32.608;-117.032;2022-08-19T09:04:56;99049.64;;;29.00;47.11
60646;BME280;46462;32.608;-117.032;2022-08-19T09:07:34;99048.99;;;28.96;47.10
60646;BME280;46462;32.608;-117.032;2022-08-19T09:10:04;99045.45;;;28.95;47.12
60646;BME280;46462;32.608;-117.032;2022-08-19T09:12:33;99042.68;;;28.98;47.08
60646;BME280;46462;32.608;-117.032;2022-08-19T09:15:00;99035.26;;;28.99;46.89
60646;BME280;46462;32.608;-117.032;2022-08-19T09:17:29;99029.22;;;28.98;46.96
60646;BME280;46462;32.608;-117.032;2022-08-19T09:19:59;99019.58;;;28.97;46.85
60646;BME280;46462;32.608;-117.032;2022-08-19T09:22:27;99009.69;;;28.97;46.82
60646;BME280;46462;32.608;-117.032;2022-08-19T09:24:57;99000.82;;;28.97;46.80
60646;BME280;46462;32.608;-117.032;2022-08-19T09:27:28;98994.49;;;28.94;46.89
60646;BME280;46462;32.608;-117.032;2022-08-19T09:29:58;98986.47;;;28.91;46.97
60646;BME280;46462;32.608;-117.032;2022-08-19T09:32:28;98985.29;;;28.88;46.97
60646;BME280;46462;32.608;-117.032;2022-08-19T09:34:58;98981.44;;;28.90;46.94
60646;BME280;46462;32.608;-117.032;2022-08-19T09:37:28;98993.55;;;28.90;46.87
60646;BME280;46462;32.608;-117.032;2022-08-19T09:39:58;99006.12;;;28.89;46.83
60646;BME280;46462;32.608;-117.032;2022-08-19T09:42:28;99016.38;;;28.91;46.77
60646;BME280;46462;32.608;-117.032;2022-08-19T09:44:58;99014.94;;;28.85;46.85
60646;BME280;46462;32.608;-117.032;2022-08-19T09:47:28;99005.08;;;28.93;46.74
60646;BME280;46462;32.608;-117.032;2022-08-19T09:49:58;98998.58;;;28.89;46.75
60646;BME280;46462;32.608;-117.032;2022-08-19T09:52:28;98997.46;;;28.86;46.78
60646;BME280;46462;32.608;-117.032;2022-08-19T09:54:59;98995.31;;;28.86;46.78
60646;BME280;46462;32.608;-117.032;2022-08-19T09:57:29;98991.93;;;28.93;46.61
60646;BME280;46462;32.608;-117.032;2022-08-19T09:59:59;98997.59;;;28.88;46.58
60646;BME280;46462;32.608;-117.032;2022-08-19T10:02:29;98997.29;;;28.84;46.63
60646;BME280;46462;32.608;-117.032;2022-08-19T10:04:59;98997.56;;;28.87;46.63
60646;BME280;46462;32.608;-117.032;2022-08-19T10:07:30;99002.67;;;28.85;46.68
60646;BME280;46462;32.608;-117.032;2022-08-19T10:09:59;99011.14;;;28.82;46.66
60646;BME280;46462;32.608;-117.032;2022-08-19T10:12:29;99016.76;;;28.84;46.68
60646;BME280;46462;32.608;-117.032;2022-08-19T10:15:00;99018.66;;;28.90;46.35
60646;BME280;46462;32.608;-117.032;2022-08-19T10:17:30;99017.61;;;28.82;46.58
60646;BME280;46462;32.608;-117.032;2022-08-19T10:20:00;99017.28;;;28.80;46.58
60646;BME280;46462;32.608;-117.032;2022-08-19T10:22:30;99017.76;;;28.86;46.49
60646;BME280;46462;32.608;-117.032;2022-08-19T10:25:00;99018.98;;;28.84;46.47
60646;BME280;46462;32.608;-117.032;2022-08-19T10:27:30;99020.62;;;28.79;46.60
60646;BME280;46462;32.608;-117.032;2022-08-19T10:30:00;99013.16;;;28.76;46.62
60646;BME280;46462;32.608;-117.032;2022-08-19T10:32:30;99002.40;;;28.77;46.55
60646;BME280;46462;32.608;-117.032;2022-08-19T10:35:01;98997.50;;;28.81;46.49
60646;BME280;46462;32.608;-117.032;2022-08-19T10:37:31;98993.56;;;28.84;46.40
60646;BME280;46462;32.608;-117.032;2022-08-19T10:40:01;98990.44;;;28.81;46.39
60646;BME280;46462;32.608;-117.032;2022-08-19T10:42:31;98987.84;;;28.80;46.41
60646;BME280;46462;32.608;-117.032;2022-08-19T10:45:01;98988.78;;;28.73;46.56
60646;BME280;46462;32.608;-117.032;2022-08-19T10:47:31;98991.14;;;28.76;46.43
60646;BME280;46462;32.608;-117.032;2022-08-19T10:50:02;98991.90;;;28.79;46.20
60646;BME280;46462;32.608;-117.032;2022-08-19T10:52:31;98982.51;;;28.76;46.27
60646;BME280;46462;32.608;-117.032;2022-08-19T10:55:02;98976.19;;;28.76;46.24
60646;BME280;46462;32.608;-117.032;2022-08-19T10:57:31;98973.50;;;28.72;46.46
60646;BME280;46462;32.608;-117.032;2022-08-19T11:00:02;98972.85;;;28.74;46.28
60646;BME280;46462;32.608;-117.032;2022-08-19T11:02:32;98979.29;;;28.73;46.31
60646;BME280;46462;32.608;-117.032;2022-08-19T11:05:02;98984.27;;;28.77;46.16
60646;BME280;46462;32.608;-117.032;2022-08-19T11:07:32;98981.76;;;28.76;46.17
60646;BME280;46462;32.608;-117.032;2022-08-19T11:10:02;98976.34;;;28.71;46.33
60646;BME280;46462;32.608;-117.032;2022-08-19T11:12:32;98980.36;;;28.74;46.23
60646;BME280;46462;32.608;-117.032;2022-08-19T11:15:02;98983.33;;;28.69;46.31
60646;BME280;46462;32.608;-117.032;2022-08-19T11:17:32;98977.58;;;28.73;46.19
60646;BME280;46462;32.608;-117.032;2022-08-19T11:20:08;98977.05;;;28.72;46.06
60646;BME280;46462;32.608;-117.032;2022-08-19T11:22:37;98980.03;;;28.72;46.15
60646;BME280;46462;32.608;-117.032;2022-08-19T11:25:09;98981.05;;;28.69;46.24
60646;BME280;46462;32.608;-117.032;2022-08-19T11:27:39;98973.71;;;28.75;45.97
60646;BME280;46462;32.608;-117.032;2022-08-19T11:30:08;98962.28;;;28.71;45.99
60646;BME280;46462;32.608;-117.032;2022-08-19T11:32:37;98957.10;;;28.67;46.17
60646;BME280;46462;32.608;-117.032;2022-08-19T11:35:08;98965.17;;;28.69;46.13
60646;BME280;46462;32.608;-117.032;2022-08-19T11:37:38;98965.13;;;28.66;46.03
60646;BME280;46462;32.608;-117.032;2022-08-19T11:40:09;98963.69;;;28.63;46.14
60646;BME280;46462;32.608;-117.032;2022-08-19T11:42:38;98960.77;;;28.59;46.23
60646;BME280;46462;32.608;-117.032;2022-08-19T11:45:09;98956.03;;;28.61;46.14
60646;BME280;46462;32.608;-117.032;2022-08-19T11:47:38;98955.06;;;28.62;46.00
60646;BME280;46462;32.608;-117.032;2022-08-19T11:50:08;98956.39;;;28.62;45.96
60646;BME280;46462;32.608;-117.032;2022-08-19T11:52:38;98959.66;;;28.64;45.95
60646;BME280;46462;32.608;-117.032;2022-08-19T11:55:09;98966.30;;;28.64;45.91
60646;BME280;46462;32.608;-117.032;2022-08-19T11:57:38;98963.93;;;28.67;45.80
60646;BME280;46462;32.608;-117.032;2022-08-19T12:00:13;98965.95;;;28.68;45.81
60646;BME280;46462;32.608;-117.032;2022-08-19T12:02:42;98966.44;;;28.73;45.68
60646;BME280;46462;32.608;-117.032;2022-08-19T12:05:12;98967.62;;;28.68;45.69
60646;BME280;46462;32.608;-117.032;2022-08-19T12:07:42;98968.43;;;28.71;45.53
60646;BME280;46462;32.608;-117.032;2022-08-19T12:10:13;98973.57;;;28.71;45.57
60646;BME280;46462;32.608;-117.032;2022-08-19T12:12:42;98974.66;;;28.72;45.54
60646;BME280;46462;32.608;-117.032;2022-08-19T12:15:13;98979.57;;;28.74;45.50
60646;BME280;46462;32.608;-117.032;2022-08-19T12:17:43;98981.64;;;28.68;45.58
60646;BME280;46462;32.608;-117.032;2022-08-19T12:20:15;98983.20;;;28.64;45.66
60646;BME280;46462;32.608;-117.032;2022-08-19T12:22:43;98980.98;;;28.69;45.48
60646;BME280;46462;32.608;-117.032;2022-08-19T12:25:13;98977.13;;;28.64;45.70
60646;BME280;46462;32.608;-117.032;2022-08-19T12:27:43;98975.94;;;28.70;45.34
60646;BME280;46462;32.608;-117.032;2022-08-19T12:30:14;98977.55;;;28.73;45.34
60646;BME280;46462;32.608;-117.032;2022-08-19T12:32:43;98984.37;;;28.73;45.26
60646;BME280;46462;32.608;-117.032;2022-08-19T12:35:13;98985.00;;;28.72;45.37
60646;BME280;46462;32.608;-117.032;2022-08-19T12:37:45;98983.78;;;28.67;45.36
60646;BME280;46462;32.608;-117.032;2022-08-19T12:40:15;98981.21;;;28.72;45.19
60646;BME280;46462;32.608;-117.032;2022-08-19T12:42:44;98981.59;;;28.76;45.09
60646;BME280;46462;32.608;-117.032;2022-08-19T12:45:14;98986.32;;;28.65;45.39